createdAt,value
2019-05-11T00:01:35.457Z,12.46
2019-05-11T00:04:03.254Z,12.49
2019-05-11T00:06:30.471Z,12.47
2019-05-11T00:08:58.261Z,12.45
2019-05-11T00:11:26.325Z,12.40
2019-05-11T00:13:54.830Z,12.32
2019-05-11T00:16:22.106Z,12.19
2019-05-11T00:18:50.982Z,12.10
2019-05-11T00:21:18.619Z,11.99
2019-05-11T00:23:45.929Z,11.91
2019-05-11T00:26:13.191Z,11.81
2019-05-11T00:28:42.051Z,11.78
2019-05-11T00:31:09.293Z,11.75
2019-05-11T00:33:38.267Z,11.71
2019-05-11T00:36:06.595Z,11.69
2019-05-11T00:38:33.886Z,11.65
2019-05-11T00:41:01.722Z,11.61
2019-05-11T00:43:28.918Z,11.60
2019-05-11T00:45:56.305Z,11.57
2019-05-11T00:48:23.586Z,11.53
2019-05-11T00:50:50.944Z,11.53
2019-05-11T00:53:18.909Z,11.51
2019-05-11T00:55:47.071Z,11.47
2019-05-11T00:58:17.627Z,11.39
2019-05-11T01:00:45.543Z,11.40
2019-05-11T01:03:12.802Z,11.39
2019-05-11T01:05:40.106Z,11.37
2019-05-11T01:08:07.921Z,11.35
2019-05-11T01:10:42.025Z,11.32
2019-05-11T01:13:04.410Z,11.31
2019-05-11T01:15:31.735Z,11.28
2019-05-11T01:17:59.269Z,11.23
2019-05-11T01:20:26.595Z,11.21
2019-05-11T01:22:54.133Z,11.18
2019-05-11T01:25:21.615Z,11.17
2019-05-11T01:27:48.845Z,11.18
2019-05-11T01:30:17.125Z,11.15
2019-05-11T01:32:44.281Z,11.14
2019-05-11T01:35:11.880Z,11.16
2019-05-11T01:37:39.073Z,11.18
2019-05-11T01:40:07.293Z,11.16
2019-05-11T01:42:34.514Z,11.15
2019-05-11T01:45:02.371Z,11.14
2019-05-11T01:47:30.320Z,11.15
2019-05-11T01:49:57.846Z,11.13
2019-05-11T01:52:25.110Z,11.00
2019-05-11T01:54:52.507Z,11.00
2019-05-11T01:57:19.726Z,10.92
2019-05-11T01:59:46.971Z,10.91
2019-05-11T02:02:14.277Z,10.93
2019-05-11T02:04:41.526Z,10.87
2019-05-11T02:07:09.250Z,10.87
2019-05-11T02:09:36.752Z,10.86
2019-05-11T02:12:03.949Z,10.87
2019-05-11T02:14:31.214Z,10.91
2019-05-11T02:16:58.675Z,10.96
2019-05-11T02:19:25.913Z,10.85
2019-05-11T02:21:53.439Z,10.81
2019-05-11T02:24:21.009Z,10.82
2019-05-11T02:26:48.263Z,10.76
2019-05-11T02:29:15.896Z,10.75
2019-05-11T02:31:44.147Z,10.62
2019-05-11T02:34:11.362Z,10.58
2019-05-11T02:36:38.612Z,10.47
2019-05-11T02:39:06.891Z,10.48
2019-05-11T02:41:37.223Z,10.40
2019-05-11T02:44:03.676Z,10.35
2019-05-11T02:46:31.072Z,10.37
2019-05-11T02:48:58.660Z,10.38
2019-05-11T02:51:27.737Z,10.39
2019-05-11T02:53:56.431Z,10.40
2019-05-11T02:56:25.778Z,10.41
2019-05-11T02:58:52.896Z,10.36
2019-05-11T03:01:20.242Z,10.38
2019-05-11T03:03:47.478Z,10.31
2019-05-11T03:06:14.693Z,10.23
2019-05-11T03:08:42.050Z,10.24
2019-05-11T03:11:09.407Z,10.21
2019-05-11T03:13:36.646Z,10.23
2019-05-11T03:16:04.116Z,10.26
2019-05-11T03:18:31.347Z,10.25
2019-05-11T03:20:58.872Z,10.26
2019-05-11T03:23:27.323Z,10.28
2019-05-11T03:25:54.684Z,10.31
2019-05-11T03:28:22.231Z,10.32
2019-05-11T03:30:49.905Z,10.29
2019-05-11T03:33:17.482Z,10.27
2019-05-11T03:35:44.764Z,10.32
2019-05-11T03:38:12.987Z,10.26
2019-05-11T03:40:40.356Z,10.30
2019-05-11T03:43:07.854Z,10.29
2019-05-11T03:45:35.114Z,10.29
2019-05-11T03:48:02.652Z,10.33
2019-05-11T03:50:30.625Z,10.40
2019-05-11T03:52:58.935Z,10.41
2019-05-11T03:55:26.435Z,10.43
2019-05-11T03:57:54.082Z,10.47
2019-05-11T04:00:21.553Z,10.49
2019-05-11T04:02:48.813Z,10.49
2019-05-11T04:05:16.187Z,10.44
2019-05-11T04:07:43.464Z,10.49
2019-05-11T04:10:11.589Z,10.49
2019-05-11T04:12:38.941Z,10.50
2019-05-11T04:15:06.407Z,10.42
2019-05-11T04:17:33.745Z,10.37
2019-05-11T04:20:01.145Z,10.33
2019-05-11T04:22:28.546Z,10.28
2019-05-11T04:24:55.806Z,10.32
2019-05-11T04:27:23.021Z,10.34
2019-05-11T04:29:52.226Z,10.30
2019-05-11T04:32:19.434Z,10.36
2019-05-11T04:34:47.630Z,10.45
2019-05-11T04:37:15.094Z,10.46
2019-05-11T04:39:42.662Z,10.46
2019-05-11T04:42:10.259Z,10.47
2019-05-11T04:44:37.524Z,10.46
2019-05-11T04:47:05.117Z,10.48
2019-05-11T04:49:32.898Z,10.52
2019-05-11T04:52:00.402Z,10.50
2019-05-11T04:54:27.619Z,10.45
2019-05-11T04:56:55.389Z,10.48
2019-05-11T04:59:22.659Z,10.49
2019-05-11T05:01:50.034Z,10.52
2019-05-11T05:04:17.128Z,10.52
2019-05-11T05:06:58.637Z,10.54
2019-05-11T05:09:15.308Z,10.47
2019-05-11T05:11:47.256Z,10.51
2019-05-11T05:14:14.709Z,10.51
2019-05-11T05:16:42.007Z,10.57
2019-05-11T05:19:09.356Z,10.44
2019-05-11T05:21:36.668Z,10.43
2019-05-11T05:24:03.933Z,10.51
2019-05-11T05:26:31.202Z,10.65
2019-05-11T05:28:58.497Z,10.64
2019-05-11T05:31:25.804Z,10.59
2019-05-11T05:33:53.570Z,10.58
2019-05-11T05:36:21.113Z,10.57
2019-05-11T05:38:48.830Z,10.56
2019-05-11T05:41:16.055Z,10.60
2019-05-11T05:43:43.293Z,10.64
2019-05-11T05:46:10.730Z,10.67
2019-05-11T05:48:40.674Z,10.70
2019-05-11T05:51:08.019Z,10.69
2019-05-11T05:53:35.248Z,10.78
2019-05-11T05:56:02.572Z,10.58
2019-05-11T05:58:29.788Z,10.53
2019-05-11T06:00:57.156Z,10.52
2019-05-11T06:03:24.711Z,10.57
2019-05-11T06:05:51.904Z,10.70
2019-05-11T06:08:19.142Z,10.75
2019-05-11T06:10:46.414Z,10.82
2019-05-11T06:13:13.775Z,10.90
2019-05-11T06:15:41.150Z,10.86
2019-05-11T06:18:08.708Z,10.83
2019-05-11T06:20:35.878Z,10.83
2019-05-11T06:23:03.199Z,10.78
2019-05-11T06:25:30.646Z,10.76
2019-05-11T06:28:01.546Z,10.76
2019-05-11T06:30:29.823Z,10.80
2019-05-11T06:32:57.985Z,10.89
2019-05-11T06:35:26.205Z,10.99
2019-05-11T06:37:53.340Z,10.98
2019-05-11T06:40:20.627Z,11.04
2019-05-11T06:42:48.248Z,11.08
2019-05-11T06:45:15.588Z,11.18
2019-05-11T06:47:42.848Z,11.14
2019-05-11T06:50:10.481Z,11.17
2019-05-11T06:52:37.990Z,11.20
2019-05-11T06:55:05.582Z,11.15
2019-05-11T06:57:32.798Z,11.19
2019-05-11T07:00:00.066Z,11.18
2019-05-11T07:02:27.724Z,11.17
2019-05-11T07:04:55.036Z,11.25
2019-05-11T07:07:22.385Z,11.26
2019-05-11T07:09:49.591Z,11.26
2019-05-11T07:12:17.166Z,11.20
2019-05-11T07:14:44.966Z,11.21
2019-05-11T07:17:18.349Z,11.24
2019-05-11T07:19:47.625Z,11.37
2019-05-11T07:22:20.064Z,11.47
2019-05-11T07:24:52.573Z,11.54
2019-05-11T07:27:30.963Z,11.43
2019-05-11T07:29:58.279Z,11.50
2019-05-11T07:32:26.256Z,11.53
2019-05-11T07:34:53.583Z,11.57
2019-05-11T07:37:24.101Z,11.56
2019-05-11T07:39:50.416Z,11.59
2019-05-11T07:42:18.186Z,11.57
2019-05-11T07:44:47.963Z,11.59
2019-05-11T07:47:14.875Z,11.66
2019-05-11T07:49:42.423Z,11.72
2019-05-11T07:52:10.076Z,11.72
2019-05-11T07:54:53.676Z,11.76
2019-05-11T07:57:20.955Z,11.87
2019-05-11T08:00:08.929Z,12.01
2019-05-11T08:02:38.460Z,12.08
2019-05-11T08:05:08.787Z,12.09
2019-05-11T08:07:48.233Z,12.23
2019-05-11T08:10:18.684Z,12.52
2019-05-11T08:12:48.074Z,12.70
2019-05-11T08:15:18.153Z,12.89
2019-05-11T08:17:45.054Z,12.97
2019-05-11T08:20:12.405Z,13.07
2019-05-11T08:22:42.512Z,12.98
2019-05-11T08:25:09.739Z,13.04
2019-05-11T08:27:37.874Z,13.09
2019-05-11T08:30:08.371Z,13.26
2019-05-11T08:32:35.479Z,13.26
2019-05-11T08:35:03.185Z,13.18
2019-05-11T08:37:31.059Z,13.04
2019-05-11T08:39:58.823Z,12.96
2019-05-11T08:42:28.684Z,12.89
2019-05-11T08:45:14.355Z,12.98
2019-05-11T08:47:25.024Z,13.01
2019-05-11T08:49:52.794Z,13.03
2019-05-11T08:52:20.186Z,12.88
2019-05-11T08:54:48.700Z,12.91
2019-05-11T08:57:17.997Z,13.03
2019-05-11T08:59:45.374Z,13.06
2019-05-11T09:02:12.675Z,13.13
2019-05-11T09:04:42.027Z,13.18
2019-05-11T09:07:09.488Z,13.24
2019-05-11T09:09:38.022Z,13.27
2019-05-11T09:12:07.813Z,13.22
2019-05-11T09:14:35.123Z,13.05
2019-05-11T09:17:02.377Z,12.96
2019-05-11T09:19:29.629Z,12.93
2019-05-11T09:21:58.849Z,13.07
2019-05-11T09:24:28.178Z,13.33
2019-05-11T09:26:58.771Z,13.65
2019-05-11T09:29:28.143Z,13.90
2019-05-11T09:31:57.623Z,13.95
2019-05-11T09:34:25.235Z,14.01
2019-05-11T09:36:53.418Z,14.54
2019-05-11T09:39:20.703Z,15.23
2019-05-11T09:41:49.021Z,15.87
2019-05-11T09:44:18.231Z,16.53
2019-05-11T09:46:47.823Z,16.62
2019-05-11T09:49:15.357Z,16.40
2019-05-11T09:51:43.799Z,16.01
2019-05-11T09:54:11.070Z,15.64
2019-05-11T09:56:38.438Z,15.45
2019-05-11T09:59:05.655Z,15.20
2019-05-11T10:01:32.973Z,15.01
2019-05-11T10:04:01.526Z,14.92
2019-05-11T10:06:29.424Z,14.85
2019-05-11T10:08:57.873Z,14.69
2019-05-11T10:11:25.386Z,14.43
2019-05-11T10:13:52.682Z,14.33
2019-05-11T10:16:20.306Z,14.34
2019-05-11T10:18:49.258Z,14.26
2019-05-11T10:21:18.782Z,14.32
2019-05-11T10:23:48.663Z,14.50
2019-05-11T10:26:15.548Z,14.76
2019-05-11T10:28:43.451Z,14.94
2019-05-11T10:31:11.101Z,15.18
2019-05-11T10:33:38.495Z,15.43
2019-05-11T10:36:07.927Z,15.56
2019-05-11T10:38:37.944Z,15.60
2019-05-11T10:41:05.675Z,15.48
2019-05-11T10:43:32.924Z,15.28
2019-05-11T10:46:08.754Z,15.17
2019-05-11T10:48:29.492Z,15.15
2019-05-11T10:51:00.334Z,15.22
2019-05-11T10:53:28.012Z,15.51
2019-05-11T10:55:55.344Z,15.61
2019-05-11T10:58:22.778Z,15.77
2019-05-11T11:00:50.070Z,15.79
2019-05-11T11:03:18.039Z,15.60
2019-05-11T11:05:45.374Z,15.31
2019-05-11T11:08:12.710Z,15.17
2019-05-11T11:10:42.402Z,15.09
2019-05-11T11:13:10.103Z,14.91
2019-05-11T11:15:38.107Z,14.78
2019-05-11T11:18:08.303Z,14.74
2019-05-11T11:20:34.972Z,14.89
2019-05-11T11:23:02.269Z,15.16
2019-05-11T11:25:29.763Z,15.34
2019-05-11T11:27:57.883Z,15.51
2019-05-11T11:30:25.135Z,15.52
2019-05-11T11:32:52.708Z,15.14
2019-05-11T11:35:19.896Z,15.11
2019-05-11T11:37:47.914Z,15.07
2019-05-11T11:40:17.620Z,14.99
2019-05-11T11:42:44.834Z,15.28
2019-05-11T11:45:13.118Z,15.37
2019-05-11T11:47:40.481Z,15.07
2019-05-11T11:50:09.302Z,14.80
2019-05-11T11:52:38.281Z,15.00
2019-05-11T11:55:08.301Z,15.05
2019-05-11T11:57:37.961Z,15.02
2019-05-11T12:00:09.316Z,15.08
2019-05-11T12:02:38.771Z,15.02
2019-05-11T12:05:08.976Z,14.92
2019-05-11T12:07:38.683Z,14.80
2019-05-11T12:10:07.764Z,14.66
2019-05-11T12:12:35.434Z,14.34
2019-05-11T12:15:04.502Z,14.15
2019-05-11T12:17:32.576Z,14.03
2019-05-11T12:19:59.961Z,13.90
2019-05-11T12:22:28.159Z,13.88
2019-05-11T12:24:55.765Z,13.91
2019-05-11T12:27:22.971Z,13.99
2019-05-11T12:29:50.496Z,13.87
2019-05-11T12:32:23.938Z,13.83
2019-05-11T12:34:51.250Z,13.77
2019-05-11T12:37:21.810Z,13.81
2019-05-11T12:39:48.216Z,13.71
2019-05-11T12:42:17.822Z,13.71
2019-05-11T12:44:45.060Z,13.72
2019-05-11T12:47:23.988Z,13.57
2019-05-11T12:49:41.571Z,13.31
2019-05-11T12:52:08.908Z,13.17
2019-05-11T12:54:38.500Z,12.97
2019-05-11T12:57:07.913Z,12.78
2019-05-11T12:59:38.066Z,12.62
2019-05-11T13:02:04.864Z,12.51
2019-05-11T13:04:32.909Z,12.69
2019-05-11T13:07:00.167Z,13.05
2019-05-11T13:09:28.795Z,13.28
2019-05-11T13:11:58.721Z,13.46
2019-05-11T13:14:27.766Z,13.51
2019-05-11T13:16:55.662Z,13.56
2019-05-11T13:19:23.228Z,13.76
2019-05-11T13:21:51.059Z,14.04
2019-05-11T13:24:18.881Z,14.34
2019-05-11T13:26:48.549Z,14.73
2019-05-11T13:29:18.487Z,15.19
2019-05-11T13:31:45.832Z,15.59
2019-05-11T13:34:13.334Z,16.06
2019-05-11T13:36:41.007Z,16.26
2019-05-11T13:39:08.906Z,16.22
2019-05-11T13:41:38.302Z,16.13
2019-05-11T13:44:07.771Z,15.77
2019-05-11T13:46:38.916Z,15.51
2019-05-11T13:49:08.595Z,15.30
2019-05-11T13:51:38.588Z,15.23
2019-05-11T13:54:07.730Z,15.38
2019-05-11T13:56:37.760Z,15.47
2019-05-11T13:59:10.654Z,15.56
2019-05-11T14:01:38.440Z,15.31
2019-05-11T14:04:07.971Z,15.20
2019-05-11T14:06:37.821Z,15.21
2019-05-11T14:09:07.782Z,15.25
2019-05-11T14:11:35.163Z,15.31
2019-05-11T14:14:02.894Z,15.16
2019-05-11T14:16:30.599Z,15.14
2019-05-11T14:18:58.786Z,15.34
2019-05-11T14:21:27.936Z,15.47
2019-05-11T14:23:55.624Z,15.50
2019-05-11T14:26:22.944Z,15.64
2019-05-11T14:28:50.186Z,15.66
2019-05-11T14:31:18.952Z,15.68
2019-05-11T14:33:48.651Z,15.87
2019-05-11T14:36:18.334Z,16.05
2019-05-11T14:38:45.568Z,16.20
2019-05-11T14:41:13.228Z,16.60
2019-05-11T14:43:40.705Z,16.79
2019-05-11T14:46:09.304Z,16.71
2019-05-11T14:48:38.955Z,16.79
2019-05-11T14:51:08.351Z,16.79
2019-05-11T14:53:37.948Z,16.32
2019-05-11T14:56:08.318Z,16.34
2019-05-11T14:58:35.845Z,16.25
2019-05-11T15:01:03.133Z,16.18
2019-05-11T15:03:30.431Z,16.37
2019-05-11T15:05:58.934Z,16.30
2019-05-11T15:08:28.474Z,16.09
2019-05-11T15:10:57.589Z,16.07
2019-05-11T15:13:24.768Z,15.84
2019-05-11T15:15:52.084Z,15.63
2019-05-11T15:18:19.349Z,15.36
2019-05-11T15:21:08.273Z,15.10
2019-05-11T15:23:40.579Z,14.73
2019-05-11T15:26:10.082Z,14.55
2019-05-11T15:28:37.947Z,14.46
2019-05-11T15:31:07.861Z,14.17
2019-05-11T15:33:34.880Z,14.06
2019-05-11T15:36:02.127Z,13.99
2019-05-11T15:38:29.954Z,13.89
2019-05-11T15:40:57.971Z,13.82
2019-05-11T15:43:28.379Z,13.73
2019-05-11T15:45:57.802Z,13.65
2019-05-11T15:48:25.459Z,13.56
2019-05-11T15:50:53.754Z,13.59
2019-05-11T15:53:23.845Z,13.46
2019-05-11T15:55:51.727Z,13.27
2019-05-11T15:58:21.802Z,13.10
2019-05-11T16:00:49.037Z,12.96
2019-05-11T16:03:18.618Z,12.81
2019-05-11T16:05:47.885Z,12.61
2019-05-11T16:08:18.636Z,12.37
2019-05-11T16:10:45.304Z,12.18
2019-05-11T16:13:13.758Z,12.11
2019-05-11T16:15:41.640Z,12.17
2019-05-11T16:18:14.701Z,12.14
2019-05-11T16:20:50.094Z,12.19
2019-05-11T16:23:23.164Z,12.23
2019-05-11T16:26:00.473Z,12.39
2019-05-11T16:28:32.322Z,12.50
2019-05-11T16:31:01.270Z,12.53
2019-05-11T16:33:32.509Z,12.48
2019-05-11T16:36:00.811Z,12.52
2019-05-11T16:38:29.945Z,12.45
2019-05-11T16:40:58.405Z,12.35
2019-05-11T16:43:28.156Z,12.33
2019-05-11T16:45:57.840Z,12.22
2019-05-11T16:48:33.289Z,12.20
2019-05-11T16:51:00.633Z,12.14
2019-05-11T16:53:28.931Z,12.05
2019-05-11T16:55:58.968Z,12.03
2019-05-11T16:58:27.771Z,11.98
2019-05-11T17:00:58.130Z,11.94
2019-05-11T17:03:27.888Z,11.92
2019-05-11T17:05:58.682Z,12.00
2019-05-11T17:08:29.853Z,12.01
2019-05-11T17:10:59.194Z,11.96
2019-05-11T17:13:27.422Z,11.94
2019-05-11T17:15:58.069Z,11.84
2019-05-11T17:18:25.173Z,11.84
2019-05-11T17:20:52.454Z,11.71
2019-05-11T17:23:20.143Z,11.69
2019-05-11T17:25:48.405Z,11.72
2019-05-11T17:28:16.128Z,11.75
2019-05-11T17:30:43.527Z,11.61
2019-05-11T17:33:11.015Z,11.57
2019-05-11T17:35:38.705Z,11.46
2019-05-11T17:38:07.964Z,11.46
2019-05-11T17:40:37.682Z,11.39
2019-05-11T17:43:04.517Z,11.35
2019-05-11T17:45:32.089Z,11.39
2019-05-11T17:47:59.365Z,11.37
2019-05-11T17:50:28.220Z,11.30
2019-05-11T17:52:55.821Z,11.25
2019-05-11T17:55:23.241Z,11.21
2019-05-11T17:57:53.947Z,11.21
2019-05-11T18:00:20.522Z,11.13
2019-05-11T18:02:49.086Z,11.05
2019-05-11T18:05:17.862Z,11.01
2019-05-11T18:07:45.659Z,10.98
2019-05-11T18:10:13.226Z,10.97
2019-05-11T18:12:42.690Z,10.96
2019-05-11T18:15:12.099Z,10.94
2019-05-11T18:17:39.298Z,10.96
2019-05-11T18:20:16.948Z,10.89
2019-05-11T18:22:39.042Z,10.89
2019-05-11T18:25:14.231Z,10.89
2019-05-11T18:27:41.571Z,10.86
2019-05-11T18:30:09.511Z,10.84
2019-05-11T18:32:39.658Z,10.87
2019-05-11T18:35:08.370Z,10.86
2019-05-11T18:37:41.712Z,10.84
2019-05-11T18:40:11.216Z,10.84
2019-05-11T18:42:38.556Z,10.83
2019-05-11T18:45:08.339Z,10.81
2019-05-11T18:47:37.934Z,10.81
2019-05-11T18:50:05.419Z,10.83
2019-05-11T18:52:32.872Z,10.82
2019-05-11T18:55:00.325Z,10.84
2019-05-11T18:57:27.888Z,10.83
2019-05-11T18:59:55.521Z,10.83
2019-05-11T19:02:23.296Z,10.77
2019-05-11T19:04:50.663Z,10.77
2019-05-11T19:07:20.346Z,10.69
2019-05-11T19:09:48.489Z,10.65
2019-05-11T19:12:18.483Z,10.58
2019-05-11T19:14:48.123Z,10.49
2019-05-11T19:17:18.035Z,10.42
2019-05-11T19:19:45.414Z,10.36
2019-05-11T19:22:14.651Z,10.37
2019-05-11T19:24:41.959Z,10.34
2019-05-11T19:27:10.370Z,10.27
2019-05-11T19:29:38.063Z,10.25
2019-05-11T19:32:11.206Z,10.16
2019-05-11T19:34:38.934Z,10.15
2019-05-11T19:37:08.467Z,10.09
2019-05-11T19:39:35.722Z,10.05
2019-05-11T19:42:03.106Z,10.04
2019-05-11T19:44:31.516Z,10.01
2019-05-11T19:46:59.130Z,9.98
2019-05-11T19:49:27.919Z,9.94
2019-05-11T19:51:55.289Z,9.97
2019-05-11T19:54:23.002Z,9.90
2019-05-11T19:56:52.423Z,9.86
2019-05-11T19:59:20.141Z,9.75
2019-05-11T20:02:42.215Z,9.65
2019-05-11T20:05:09.704Z,9.54
2019-05-11T20:07:37.788Z,9.48
2019-05-11T20:10:07.915Z,9.40
2019-05-11T20:12:37.624Z,9.32
2019-05-11T20:15:08.256Z,9.26
2019-05-11T20:17:36.284Z,9.19
2019-05-11T20:20:08.680Z,9.14
2019-05-11T20:22:35.988Z,9.06
2019-05-11T20:25:03.868Z,9.00
2019-05-11T20:27:31.286Z,8.95
2019-05-11T20:30:00.803Z,8.93
2019-05-11T20:32:28.499Z,8.88
2019-05-11T20:34:57.812Z,8.81
2019-05-11T20:37:25.000Z,8.77
2019-05-11T20:39:52.824Z,8.69
2019-05-11T20:42:20.228Z,8.59
2019-05-11T20:44:48.103Z,8.54
2019-05-11T20:47:17.841Z,8.54
2019-05-11T20:50:12.304Z,8.51
2019-05-11T20:52:41.534Z,8.46
2019-05-11T20:55:09.291Z,8.41
2019-05-11T20:57:39.155Z,8.37
2019-05-11T21:00:08.167Z,8.32
2019-05-11T21:02:38.071Z,8.27
2019-05-11T21:05:09.233Z,8.21
2019-05-11T21:07:38.776Z,8.19
2019-05-11T21:10:10.483Z,8.09
2019-05-11T21:12:38.936Z,8.02
2019-05-11T21:15:07.110Z,8.01
2019-05-11T21:17:34.535Z,7.91
2019-05-11T21:20:02.277Z,7.93
2019-05-11T21:22:29.701Z,7.99
2019-05-11T21:24:58.266Z,7.94
2019-05-11T21:27:28.916Z,7.90
2019-05-11T21:29:58.379Z,7.81
2019-05-11T21:32:27.826Z,7.77
2019-05-11T21:34:58.434Z,7.75
2019-05-11T21:37:24.817Z,7.70
2019-05-11T21:39:52.137Z,7.85
2019-05-11T21:42:19.970Z,7.86
2019-05-11T21:44:47.653Z,7.80
2019-05-11T21:47:14.935Z,7.76
2019-05-11T21:50:02.211Z,7.75
2019-05-11T21:52:29.620Z,7.72
2019-05-11T21:55:22.270Z,7.72
2019-05-11T21:57:49.492Z,7.69
2019-05-11T22:00:18.899Z,7.68
2019-05-11T22:02:48.654Z,7.63
2019-05-11T22:05:20.203Z,7.62
2019-05-11T22:07:51.573Z,7.60
2019-05-11T22:10:19.145Z,7.65
2019-05-11T22:12:48.995Z,7.63
2019-05-11T22:15:17.794Z,7.57
2019-05-11T22:17:44.998Z,7.54
2019-05-11T22:20:12.997Z,7.46
2019-05-11T22:22:41.528Z,7.40
2019-05-11T22:25:09.099Z,7.38
2019-05-11T22:27:44.827Z,7.34
2019-05-11T22:30:14.571Z,7.38
2019-05-11T22:32:41.866Z,7.33
2019-05-11T22:35:09.757Z,7.29
2019-05-11T22:37:38.769Z,7.24
2019-05-11T22:40:08.412Z,7.19
2019-05-11T22:42:35.946Z,7.11
2019-05-11T22:45:04.292Z,7.06
2019-05-11T22:47:32.106Z,7.02
2019-05-11T22:49:59.964Z,6.92
2019-05-11T22:52:36.029Z,6.84
2019-05-11T22:54:59.007Z,6.80
2019-05-11T22:57:29.187Z,6.80
2019-05-11T22:59:58.708Z,6.82
2019-05-11T23:02:28.666Z,6.86
2019-05-11T23:04:57.970Z,6.90
2019-05-11T23:07:25.438Z,6.86
2019-05-11T23:09:53.759Z,6.84
2019-05-11T23:12:22.301Z,6.84
2019-05-11T23:15:08.171Z,6.82
2019-05-11T23:17:35.535Z,6.83
2019-05-11T23:20:03.618Z,6.87
2019-05-11T23:22:31.165Z,6.92
2019-05-11T23:24:59.258Z,6.94
2019-05-11T23:27:28.533Z,7.11
2019-05-11T23:30:00.177Z,7.17
2019-05-11T23:32:30.027Z,7.19
2019-05-11T23:35:08.861Z,7.31
2019-05-11T23:37:42.888Z,7.27
2019-05-11T23:40:11.652Z,7.30
2019-05-11T23:42:39.740Z,7.30
2019-05-11T23:45:08.626Z,7.20
2019-05-11T23:47:36.110Z,7.21
2019-05-11T23:50:03.666Z,7.25
2019-05-11T23:52:32.154Z,7.31
2019-05-11T23:55:00.495Z,7.32
2019-05-11T23:57:29.446Z,7.27
2019-05-11T23:59:58.073Z,7.28
